createdAt,value
2023-01-18T00:06:32.723Z,3.58
2023-01-18T00:16:35.863Z,3.88
2023-01-18T00:26:40.232Z,3.50
2023-01-18T00:36:43.020Z,4.00
2023-01-18T00:46:50.096Z,3.92
2023-01-18T00:56:52.897Z,2.90
2023-01-18T01:06:57.206Z,3.42
2023-01-18T01:17:18.192Z,6.25
2023-01-18T01:27:22.407Z,2.40
2023-01-18T01:37:25.559Z,3.65
2023-01-18T01:47:38.410Z,2.30
2023-01-18T01:57:47.274Z,2.60
2023-01-18T02:07:51.905Z,3.20
2023-01-18T02:18:12.653Z,3.30
2023-01-18T02:28:18.600Z,2.17
2023-01-18T02:38:27.325Z,2.53
2023-01-18T02:48:35.971Z,2.70
2023-01-18T02:58:43.764Z,2.97
2023-01-18T03:08:51.856Z,1.70
2023-01-18T03:19:00.650Z,1.65
2023-01-18T03:29:23.915Z,2.33
2023-01-18T03:39:31.509Z,2.53
2023-01-18T03:49:36.184Z,1.90
2023-01-18T03:59:40.619Z,2.10
2023-01-18T04:09:45.095Z,2.58
2023-01-18T04:19:48.028Z,2.13
2023-01-18T04:29:52.943Z,2.40
2023-01-18T04:39:55.948Z,2.08
2023-01-18T04:50:00.304Z,1.30
2023-01-18T05:00:03.580Z,3.25
2023-01-18T05:10:09.146Z,2.85
2023-01-18T05:20:14.621Z,3.03
2023-01-18T05:30:21.129Z,3.08
2023-01-18T05:40:24.177Z,2.50
2023-01-18T05:50:28.534Z,3.70
2023-01-18T06:00:31.721Z,2.75
2023-01-18T06:10:36.234Z,4.15
2023-01-18T06:20:39.364Z,4.55
2023-01-18T06:30:46.180Z,3.50
2023-01-18T06:40:49.129Z,4.07
2023-01-18T06:51:07.445Z,2.55
2023-01-18T07:01:10.792Z,5.07
2023-01-18T07:11:15.362Z,3.53
2023-01-18T07:21:19.972Z,3.22
2023-01-18T07:31:25.329Z,5.55
2023-01-18T07:41:30.116Z,5.32
2023-01-18T07:51:45.260Z,5.35
2023-01-18T08:01:49.532Z,4.38
2023-01-18T08:11:57.266Z,5.97
2023-01-18T08:22:01.968Z,6.05
2023-01-18T08:32:08.661Z,4.30
2023-01-18T08:42:12.614Z,3.72
2023-01-18T08:52:16.947Z,4.82
2023-01-18T09:02:21.066Z,6.15
2023-01-18T09:12:25.674Z,3.30
2023-01-18T09:22:28.572Z,4.68
2023-01-18T09:32:32.948Z,4.82
2023-01-18T09:42:41.388Z,6.45
2023-01-18T09:52:52.399Z,4.20
2023-01-18T10:03:01.381Z,5.68
2023-01-18T10:13:25.116Z,6.03
2023-01-18T10:23:34.953Z,6.97
2023-01-18T10:33:43.899Z,4.47
2023-01-18T10:43:47.433Z,6.55
2023-01-18T10:53:52.191Z,9.93
2023-01-18T11:04:03.320Z,7.45
2023-01-18T11:14:26.349Z,5.78
2023-01-18T11:24:32.301Z,5.68
2023-01-18T11:34:39.995Z,9.85
2023-01-18T11:44:52.287Z,7.53
2023-01-18T11:55:03.736Z,7.13
2023-01-18T12:05:36.455Z,7.22
2023-01-18T12:15:55.724Z,5.40
2023-01-18T12:26:12.991Z,4.63
2023-01-18T12:36:56.355Z,5.40
2023-01-18T12:47:18.315Z,4.32
2023-01-18T12:57:24.414Z,5.53
2023-01-18T13:07:33.075Z,5.63
2023-01-18T13:17:46.623Z,5.65
2023-01-18T13:28:16.682Z,5.68
2023-01-18T13:38:40.696Z,7.75
2023-01-18T13:48:57.595Z,7.43
2023-01-18T13:59:20.056Z,6.60
2023-01-18T14:09:36.033Z,5.22
2023-01-18T14:20:07.350Z,6.22
2023-01-18T14:30:21.870Z,6.50
2023-01-18T14:40:31.606Z,5.70
2023-01-18T14:50:40.703Z,4.93
2023-01-18T15:00:51.139Z,7.00
2023-01-18T15:10:57.998Z,5.15
2023-01-18T15:21:10.486Z,6.18
2023-01-18T15:41:19.867Z,4.95
2023-01-18T15:51:43.161Z,7.60
2023-01-18T16:02:04.936Z,6.50
2023-01-18T16:12:09.810Z,5.78
2023-01-18T16:22:21.209Z,6.40
2023-01-18T16:32:36.911Z,5.13
2023-01-18T16:43:03.436Z,6.55
2023-01-18T16:53:06.541Z,6.22
2023-01-18T17:03:10.922Z,8.73
2023-01-18T17:13:14.215Z,9.73
2023-01-18T17:23:18.727Z,7.40
2023-01-18T17:33:23.189Z,8.00
2023-01-18T17:43:33.781Z,6.68
2023-01-18T17:53:37.578Z,7.88
2023-01-18T18:03:45.872Z,10.07
2023-01-18T18:13:48.812Z,8.40
2023-01-18T18:23:53.358Z,7.88
2023-01-18T18:33:56.255Z,10.15
2023-01-18T18:44:00.986Z,13.25
2023-01-18T18:54:06.353Z,11.10
2023-01-18T19:04:10.704Z,9.80
2023-01-18T19:14:15.223Z,9.38
2023-01-18T19:24:19.787Z,11.50
2023-01-18T19:34:23.078Z,7.68
2023-01-18T19:44:27.718Z,11.25
2023-01-18T19:54:30.609Z,7.85
2023-01-18T20:04:35.047Z,11.82
2023-01-18T20:14:41.583Z,6.40
2023-01-18T20:24:46.307Z,7.50
2023-01-18T20:34:49.646Z,9.40
2023-01-18T20:44:58.888Z,7.90
2023-01-18T20:55:02.014Z,9.80
2023-01-18T21:05:06.843Z,8.63
2023-01-18T21:15:10.537Z,7.25
2023-01-18T21:25:15.739Z,7.75
2023-01-18T21:35:19.127Z,9.05
2023-01-18T21:45:42.018Z,5.57
2023-01-18T22:05:48.987Z,6.40
2023-01-18T22:15:55.235Z,5.32
2023-01-18T22:25:59.590Z,5.50
2023-01-18T22:36:04.786Z,5.88
2023-01-18T22:46:14.414Z,4.85
2023-01-18T22:56:20.148Z,3.47
2023-01-18T23:06:24.535Z,4.50
2023-01-18T23:16:45.614Z,4.40
2023-01-18T23:26:50.241Z,5.88
2023-01-18T23:36:54.054Z,4.40
2023-01-18T23:47:16.741Z,3.75
2023-01-18T23:57:19.592Z,3.00
